Time;durP1;ratioP1;P1;durP2;ratioP2;P2;SDS_P1;SDS_P2;PMS_P1;PMS_P2;Temp;Humidity;BMP_temperature;BMP_pressure;BME280_temperature;BME280_humidity;BME280_pressure;Samples;Min_cycle;Max_cycle;Signal;HPM_P1;HPM_P2
2022/11/10 00:00:19;;;;;;;0.00;0.00;;;;;;;;;;1759070;28;20234;-70
2022/11/10 00:01:10;;;;;;;0.00;0.00;;;;;;;;;;1761448;28;20590;-70
2022/11/10 00:02:02;;;;;;;0.00;0.00;;;;;;;;;;1760587;28;20224;-70
2022/11/10 00:02:53;;;;;;;0.00;0.00;;;;;;;;;;1760186;28;20340;-70
2022/11/10 00:03:45;;;;;;;0.00;0.00;;;;;;;;;;1758324;28;20662;-70
2022/11/10 00:04:36;;;;;;;0.00;0.00;;;;;;;;;;1759667;28;20674;-70
2022/11/10 00:05:29;;;;;;;0.00;0.00;;;;;;;;;;1761327;28;20308;-70
2022/11/10 00:06:21;;;;;;;0.00;0.00;;;;;;;;;;1754683;28;20266;-70
2022/11/10 00:07:13;;;;;;;0.00;0.00;;;;;;;;;;1757373;28;20639;-71
2022/11/10 00:08:06;;;;;;;0.00;0.00;;;;;;;;;;1760936;28;20267;-71
2022/11/10 00:08:57;;;;;;;0.00;0.00;;;;;;;;;;1761345;28;20612;-70
2022/11/10 00:09:51;;;;;;;0.00;0.00;;;;;;;;;;1760947;28;20197;-71
2022/11/10 00:10:57;;;;;;;0.00;0.00;;;;;;;;;;1754655;28;20312;-71
2022/11/10 00:11:49;;;;;;;0.00;0.00;;;;;;;;;;1751966;28;20671;-70
2022/11/10 00:12:40;;;;;;;0.00;0.00;;;;;;;;;;1761017;28;20716;-70
2022/11/10 00:13:34;;;;;;;0.00;0.00;;;;;;;;;;1761589;28;20224;-70
2022/11/10 00:17:03;;;;;;;0.00;0.00;;;;;;;;;;1757869;28;20201;-70
2022/11/10 00:17:54;;;;;;;0.00;0.00;;;;;;;;;;1754864;28;20698;-70
2022/11/10 00:18:46;;;;;;;0.00;0.00;;;;;;;;;;1756225;28;20194;-70
2022/11/10 00:19:37;;;;;;;0.00;0.00;;;;;;;;;;1754471;28;20224;-70
2022/11/10 00:20:29;;;;;;;0.00;0.00;;;;;;;;;;1760854;28;20219;-70
2022/11/10 00:21:20;;;;;;;0.00;0.00;;;;;;;;;;1761114;28;20240;-71
2022/11/10 00:22:12;;;;;;;0.00;0.00;;;;;;;;;;1757199;28;20259;-71
2022/11/10 00:23:04;;;;;;;0.00;0.00;;;;;;;;;;1761213;28;20250;-71
2022/11/10 00:23:57;;;;;;;0.00;0.00;;;;;;;;;;1761844;28;20215;-71
2022/11/10 00:24:48;;;;;;;0.00;0.00;;;;;;;;;;1761441;28;20275;-70
2022/11/10 00:25:40;;;;;;;0.00;0.00;;;;;;;;;;1762290;28;20211;-71
2022/11/10 00:26:31;;;;;;;0.00;0.00;;;;;;;;;;1758623;28;20543;-71
2022/11/10 00:27:23;;;;;;;0.00;0.00;;;;;;;;;;1762081;28;20205;-70
2022/11/10 00:28:14;;;;;;;0.00;0.00;;;;;;;;;;1761452;28;20296;-70
2022/11/10 00:29:06;;;;;;;0.00;0.00;;;;;;;;;;1762190;28;20267;-70
2022/11/10 00:29:57;;;;;;;0.00;0.00;;;;;;;;;;1759659;28;20258;-71
2022/11/10 00:30:49;;;;;;;0.00;0.00;;;;;;;;;;1762136;28;20728;-71
2022/11/10 00:31:40;;;;;;;0.00;0.00;;;;;;;;;;1761095;28;20660;-70
2022/11/10 00:32:33;;;;;;;0.00;0.00;;;;;;;;;;1761423;28;20246;-70
2022/11/10 00:33:24;;;;;;;0.00;0.00;;;;;;;;;;1759850;28;20206;-70
2022/11/10 00:34:17;;;;;;;0.00;0.00;;;;;;;;;;1761859;28;20212;-70
2022/11/10 00:35:08;;;;;;;0.00;0.00;;;;;;;;;;1761187;28;20685;-70
2022/11/10 00:36:00;;;;;;;0.00;0.00;;;;;;;;;;1761947;28;20204;-70
2022/11/10 00:36:51;;;;;;;0.00;0.00;;;;;;;;;;1759483;28;20288;-70
2022/11/10 00:37:44;;;;;;;0.00;0.00;;;;;;;;;;1761821;28;20235;-70
2022/11/10 00:38:36;;;;;;;0.00;0.00;;;;;;;;;;1759515;28;20212;-70
2022/11/10 00:39:28;;;;;;;0.00;0.00;;;;;;;;;;1762223;28;20251;-70
2022/11/10 00:40:19;;;;;;;0.00;0.00;;;;;;;;;;1757415;28;20240;-70
2022/11/10 00:41:11;;;;;;;0.00;0.00;;;;;;;;;;1757213;28;20223;-70
2022/11/10 00:42:02;;;;;;;0.00;0.00;;;;;;;;;;1754198;28;20255;-70
2022/11/10 00:42:55;;;;;;;0.00;0.00;;;;;;;;;;1757787;28;20619;-70
2022/11/10 00:43:46;;;;;;;0.00;0.00;;;;;;;;;;1754504;28;20634;-70
2022/11/10 00:44:38;;;;;;;0.00;0.00;;;;;;;;;;1761206;28;20200;-70
2022/11/10 00:45:29;;;;;;;0.00;0.00;;;;;;;;;;1762465;28;20219;-70
2022/11/10 00:46:21;;;;;;;0.00;0.00;;;;;;;;;;1760699;28;20625;-71
2022/11/10 00:47:12;;;;;;;0.00;0.00;;;;;;;;;;1761235;28;20659;-71
2022/11/10 00:48:04;;;;;;;0.00;0.00;;;;;;;;;;1760362;28;20208;-71
2022/11/10 00:48:55;;;;;;;0.00;0.00;;;;;;;;;;1761706;28;20599;-71
2022/11/10 00:49:47;;;;;;;0.00;0.00;;;;;;;;;;1760924;28;20208;-71
2022/11/10 00:50:38;;;;;;;0.00;0.00;;;;;;;;;;1762277;28;20220;-71
2022/11/10 00:51:30;;;;;;;0.00;0.00;;;;;;;;;;1754049;28;20646;-71
2022/11/10 00:52:22;;;;;;;0.00;0.00;;;;;;;;;;1758532;28;20201;-70
2022/11/10 00:53:14;;;;;;;0.00;0.00;;;;;;;;;;1761224;28;20209;-70
2022/11/10 00:54:06;;;;;;;0.00;0.00;;;;;;;;;;1750592;28;20209;-70
2022/11/10 00:54:58;;;;;;;0.00;0.00;;;;;;;;;;1747860;28;20233;-70
2022/11/10 00:55:49;;;;;;;0.00;0.00;;;;;;;;;;1748151;28;20237;-70
2022/11/10 00:56:41;;;;;;;0.00;0.00;;;;;;;;;;1748985;28;20676;-71
2022/11/10 00:57:32;;;;;;;0.00;0.00;;;;;;;;;;1747765;28;20256;-71
2022/11/10 00:58:24;;;;;;;0.00;0.00;;;;;;;;;;1749063;28;20209;-71
2022/11/10 00:59:15;;;;;;;0.00;0.00;;;;;;;;;;1747960;28;20202;-71
2022/11/10 01:00:09;;;;;;;0.00;0.00;;;;;;;;;;1748945;28;20244;-71
2022/11/10 01:01:00;;;;;;;0.00;0.00;;;;;;;;;;1747893;28;20202;-71
2022/11/10 01:01:52;;;;;;;0.00;0.00;;;;;;;;;;1748177;28;20194;-71
2022/11/10 01:02:44;;;;;;;0.00;0.00;;;;;;;;;;1741088;28;20644;-71
2022/11/10 01:03:36;;;;;;;0.00;0.00;;;;;;;;;;1751717;28;20216;-71
2022/11/10 01:04:27;;;;;;;0.00;0.00;;;;;;;;;;1754815;28;20201;-71
2022/11/10 01:05:19;;;;;;;0.00;0.00;;;;;;;;;;1749840;28;20264;-71
2022/11/10 01:06:12;;;;;;;0.00;0.00;;;;;;;;;;1747724;28;20502;-71
2022/11/10 01:07:04;;;;;;;0.00;0.00;;;;;;;;;;1748583;28;20219;-70
2022/11/10 01:07:56;;;;;;;0.00;0.00;;;;;;;;;;1747506;28;20643;-70
2022/11/10 01:08:48;;;;;;;0.00;0.00;;;;;;;;;;1748984;28;20198;-70
2022/11/10 01:09:41;;;;;;;0.00;0.00;;;;;;;;;;1747936;28;20289;-70
2022/11/10 01:10:33;;;;;;;0.00;0.00;;;;;;;;;;1751519;28;20239;-70
2022/11/10 01:11:26;;;;;;;0.00;0.00;;;;;;;;;;1755010;28;20201;-70
2022/11/10 01:12:18;;;;;;;0.00;0.00;;;;;;;;;;1750430;28;20244;-71
2022/11/10 01:13:09;;;;;;;0.00;0.00;;;;;;;;;;1755410;28;20725;-71
2022/11/10 01:14:01;;;;;;;0.00;0.00;;;;;;;;;;1754646;28;20194;-71
2022/11/10 01:14:52;;;;;;;0.00;0.00;;;;;;;;;;1753184;28;20241;-71
2022/11/10 01:15:44;;;;;;;0.00;0.00;;;;;;;;;;1748139;28;20647;-71
2022/11/10 01:16:35;;;;;;;0.00;0.00;;;;;;;;;;1748580;28;20552;-70
2022/11/10 01:17:27;;;;;;;0.00;0.00;;;;;;;;;;1747689;28;20201;-70
2022/11/10 01:18:18;;;;;;;0.00;0.00;;;;;;;;;;1748589;28;20252;-70
2022/11/10 01:19:10;;;;;;;0.00;0.00;;;;;;;;;;1747889;28;20207;-70
2022/11/10 01:20:02;;;;;;;0.00;0.00;;;;;;;;;;1748802;28;20327;-70
2022/11/10 01:20:54;;;;;;;0.00;0.00;;;;;;;;;;1747283;28;20194;-70
2022/11/10 01:21:46;;;;;;;0.00;0.00;;;;;;;;;;1744644;28;20211;-71
2022/11/10 01:22:39;;;;;;;0.00;0.00;;;;;;;;;;1747445;28;20462;-70
2022/11/10 01:23:30;;;;;;;0.00;0.00;;;;;;;;;;1748595;28;20206;-71
2022/11/10 01:24:22;;;;;;;0.00;0.00;;;;;;;;;;1747700;28;20486;-71
2022/11/10 01:25:15;;;;;;;0.00;0.00;;;;;;;;;;1748947;28;20234;-71
2022/11/10 01:26:07;;;;;;;0.00;0.00;;;;;;;;;;1748741;28;20351;-70
2022/11/10 01:26:58;;;;;;;0.00;0.00;;;;;;;;;;1749416;28;20253;-70
2022/11/10 01:27:51;;;;;;;0.00;0.00;;;;;;;;;;1747872;28;20221;-70
2022/11/10 01:28:42;;;;;;;0.00;0.00;;;;;;;;;;1747274;28;20651;-70
2022/11/10 01:29:34;;;;;;;0.00;0.00;;;;;;;;;;1747790;28;20210;-70
2022/11/10 01:30:25;;;;;;;0.00;0.00;;;;;;;;;;1749181;28;20210;-70
2022/11/10 01:31:18;;;;;;;0.00;0.00;;;;;;;;;;1747467;28;20562;-70
2022/11/10 01:32:09;;;;;;;0.00;0.00;;;;;;;;;;1747276;28;20617;-70
2022/11/10 01:33:01;;;;;;;0.00;0.00;;;;;;;;;;1747685;28;20230;-70
2022/11/10 01:33:52;;;;;;;0.00;0.00;;;;;;;;;;1747992;28;20241;-70
2022/11/10 01:34:45;;;;;;;0.00;0.00;;;;;;;;;;1748525;28;20210;-70
2022/11/10 01:35:36;;;;;;;0.00;0.00;;;;;;;;;;1747990;28;20245;-70
2022/11/10 01:36:28;;;;;;;0.00;0.00;;;;;;;;;;1748567;28;20202;-71
2022/11/10 01:37:19;;;;;;;0.00;0.00;;;;;;;;;;1750933;28;20241;-71
2022/11/10 01:38:11;;;;;;;0.00;0.00;;;;;;;;;;1753431;28;20194;-71
2022/11/10 01:39:02;;;;;;;0.00;0.00;;;;;;;;;;1747081;28;20305;-71
2022/11/10 01:39:54;;;;;;;0.00;0.00;;;;;;;;;;1748759;28;20206;-71
2022/11/10 01:40:47;;;;;;;0.00;0.00;;;;;;;;;;1752900;28;20445;-71
2022/11/10 01:41:39;;;;;;;0.00;0.00;;;;;;;;;;1753101;28;21726;-70
2022/11/10 01:42:41;;;;;;;0.00;0.00;;;;;;;;;;1747816;28;20237;-70
2022/11/10 01:43:33;;;;;;;0.00;0.00;;;;;;;;;;1755037;28;20210;-70
2022/11/10 01:44:25;;;;;;;0.00;0.00;;;;;;;;;;1747539;28;20217;-70
2022/11/10 01:45:42;;;;;;;0.00;0.00;;;;;;;;;;1748436;28;20299;-70
2022/11/10 01:46:33;;;;;;;0.00;0.00;;;;;;;;;;1748864;28;20195;-70
2022/11/10 01:47:25;;;;;;;0.00;0.00;;;;;;;;;;1747338;28;20599;-71
2022/11/10 01:48:18;;;;;;;0.00;0.00;;;;;;;;;;1748700;28;20724;-71
2022/11/10 01:49:11;;;;;;;0.00;0.00;;;;;;;;;;1747507;28;20248;-71
2022/11/10 01:50:03;;;;;;;0.00;0.00;;;;;;;;;;1748201;28;20225;-71
2022/11/10 01:50:56;;;;;;;0.00;0.00;;;;;;;;;;1747207;28;20532;-71
2022/11/10 01:51:49;;;;;;;0.00;0.00;;;;;;;;;;1742672;28;20217;-70
2022/11/10 01:52:42;;;;;;;0.00;0.00;;;;;;;;;;1754088;28;20240;-70
2022/11/10 01:53:36;;;;;;;0.00;0.00;;;;;;;;;;1752678;28;20248;-70
2022/11/10 01:54:29;;;;;;;0.00;0.00;;;;;;;;;;1754442;28;20573;-70
2022/11/10 01:55:21;;;;;;;0.00;0.00;;;;;;;;;;1754616;28;20359;-70
2022/11/10 01:56:15;;;;;;;0.00;0.00;;;;;;;;;;1754356;28;20212;-70
2022/11/10 01:57:07;;;;;;;0.00;0.00;;;;;;;;;;1760969;28;20248;-70
2022/11/10 01:57:59;;;;;;;0.00;0.00;;;;;;;;;;1761081;28;20614;-70
2022/11/10 01:58:53;;;;;;;0.00;0.00;;;;;;;;;;1760320;28;20244;-70
2022/11/10 01:59:47;;;;;;;0.00;0.00;;;;;;;;;;1761019;28;20545;-70
2022/11/10 02:00:38;;;;;;;0.00;0.00;;;;;;;;;;1761686;28;20586;-70
2022/11/10 02:01:30;;;;;;;0.00;0.00;;;;;;;;;;1761005;28;20645;-70
2022/11/10 02:02:24;;;;;;;0.00;0.00;;;;;;;;;;1761078;28;20660;-70
2022/11/10 02:03:19;;;;;;;0.00;0.00;;;;;;;;;;1759854;28;20563;-70
2022/11/10 02:04:15;;;;;;;0.00;0.00;;;;;;;;;;1754300;28;20190;-70
2022/11/10 02:05:07;;;;;;;0.00;0.00;;;;;;;;;;1755689;28;20284;-70
2022/11/10 02:05:59;;;;;;;0.00;0.00;;;;;;;;;;1754038;28;20213;-70
2022/11/10 02:06:50;;;;;;;0.00;0.00;;;;;;;;;;1755463;28;20229;-70
2022/11/10 02:07:43;;;;;;;0.00;0.00;;;;;;;;;;1754403;28;20694;-70
2022/11/10 02:08:35;;;;;;;0.00;0.00;;;;;;;;;;1755230;28;20201;-70
2022/11/10 02:09:27;;;;;;;0.00;0.00;;;;;;;;;;1754600;28;20228;-70
2022/11/10 02:10:19;;;;;;;0.00;0.00;;;;;;;;;;1758338;28;20720;-70
2022/11/10 02:11:11;;;;;;;0.00;0.00;;;;;;;;;;1755206;28;20217;-70
2022/11/10 02:12:04;;;;;;;0.00;0.00;;;;;;;;;;1759747;28;20239;-70
2022/11/10 02:12:56;;;;;;;0.00;0.00;;;;;;;;;;1756970;28;20201;-70
2022/11/10 02:13:47;;;;;;;0.00;0.00;;;;;;;;;;1755510;28;20225;-70
2022/11/10 02:14:39;;;;;;;0.00;0.00;;;;;;;;;;1753980;28;20237;-70
2022/11/10 02:15:30;;;;;;;0.00;0.00;;;;;;;;;;1761375;28;20653;-70
2022/11/10 02:16:22;;;;;;;0.00;0.00;;;;;;;;;;1760642;28;20201;-70
2022/11/10 02:17:13;;;;;;;0.00;0.00;;;;;;;;;;1754927;28;20245;-70
2022/11/10 02:18:05;;;;;;;0.00;0.00;;;;;;;;;;1754879;28;20221;-70
2022/11/10 02:18:57;;;;;;;0.00;0.00;;;;;;;;;;1754298;28;20229;-70
2022/11/10 02:19:49;;;;;;;0.00;0.00;;;;;;;;;;1755189;28;20258;-70
2022/11/10 02:20:44;;;;;;;0.00;0.00;;;;;;;;;;1754399;28;20248;-70
2022/11/10 02:21:36;;;;;;;0.00;0.00;;;;;;;;;;1755726;28;20310;-70
2022/11/10 02:22:27;;;;;;;0.00;0.00;;;;;;;;;;1756246;28;20251;-70
2022/11/10 02:23:38;;;;;;;0.00;0.00;;;;;;;;;;1755058;28;20212;-70
2022/11/10 02:24:29;;;;;;;0.00;0.00;;;;;;;;;;1754514;28;20210;-70
2022/11/10 02:25:22;;;;;;;0.00;0.00;;;;;;;;;;1755280;28;20258;-70
2022/11/10 02:26:15;;;;;;;0.00;0.00;;;;;;;;;;1756315;28;20570;-70
2022/11/10 02:27:07;;;;;;;0.00;0.00;;;;;;;;;;1754861;28;20508;-70
2022/11/10 02:27:58;;;;;;;0.00;0.00;;;;;;;;;;1754309;28;20590;-71
2022/11/10 02:28:50;;;;;;;0.00;0.00;;;;;;;;;;1755372;28;20225;-70
2022/11/10 02:29:41;;;;;;;0.00;0.00;;;;;;;;;;1754480;28;20205;-71
2022/11/10 02:30:33;;;;;;;0.00;0.00;;;;;;;;;;1755221;28;20285;-71
2022/11/10 02:31:24;;;;;;;0.00;0.00;;;;;;;;;;1754702;28;20669;-71
2022/11/10 02:32:16;;;;;;;0.00;0.00;;;;;;;;;;1754061;28;20205;-70
2022/11/10 02:33:07;;;;;;;0.00;0.00;;;;;;;;;;1755479;28;20229;-70
2022/11/10 02:33:59;;;;;;;0.00;0.00;;;;;;;;;;1761343;28;20584;-70
2022/11/10 02:34:51;;;;;;;0.00;0.00;;;;;;;;;;1760535;28;20623;-70
2022/11/10 02:35:43;;;;;;;0.00;0.00;;;;;;;;;;1754326;28;20236;-70
2022/11/10 02:36:35;;;;;;;0.00;0.00;;;;;;;;;;1755040;28;20209;-69
2022/11/10 02:37:27;;;;;;;0.00;0.00;;;;;;;;;;1753569;28;20210;-70
2022/11/10 02:38:18;;;;;;;0.00;0.00;;;;;;;;;;1755314;28;21255;-70
2022/11/10 02:39:10;;;;;;;0.00;0.00;;;;;;;;;;1754225;28;20212;-70
2022/11/10 02:40:02;;;;;;;0.00;0.00;;;;;;;;;;1755282;28;20644;-70
2022/11/10 02:40:54;;;;;;;0.00;0.00;;;;;;;;;;1757169;28;20202;-71
2022/11/10 02:41:45;;;;;;;0.00;0.00;;;;;;;;;;1757501;28;20241;-70
2022/11/10 02:42:37;;;;;;;0.00;0.00;;;;;;;;;;1756547;28;20639;-70
2022/11/10 02:43:29;;;;;;;0.00;0.00;;;;;;;;;;1757874;28;20658;-70
2022/11/10 02:44:21;;;;;;;0.00;0.00;;;;;;;;;;1753965;28;20282;-70
2022/11/10 02:45:12;;;;;;;0.00;0.00;;;;;;;;;;1755542;28;20212;-70
2022/11/10 02:46:03;;;;;;;0.00;0.00;;;;;;;;;;1759074;28;20204;-70
2022/11/10 02:46:55;;;;;;;0.00;0.00;;;;;;;;;;1757069;28;20281;-70
2022/11/10 02:47:46;;;;;;;0.00;0.00;;;;;;;;;;1760650;28;20224;-70
2022/11/10 02:48:38;;;;;;;0.00;0.00;;;;;;;;;;1756423;28;20581;-70
2022/11/10 02:49:29;;;;;;;0.00;0.00;;;;;;;;;;1754306;28;20244;-70
2022/11/10 02:50:21;;;;;;;0.00;0.00;;;;;;;;;;1755301;28;20240;-70
2022/11/10 02:51:12;;;;;;;0.00;0.00;;;;;;;;;;1754018;28;20570;-70
2022/11/10 02:52:06;;;;;;;0.00;0.00;;;;;;;;;;1758481;28;20212;-70
2022/11/10 02:52:57;;;;;;;0.00;0.00;;;;;;;;;;1753659;28;20326;-70
2022/11/10 02:53:49;;;;;;;0.00;0.00;;;;;;;;;;1753905;28;20291;-70
2022/11/10 02:54:40;;;;;;;0.00;0.00;;;;;;;;;;1753965;28;20266;-70
2022/11/10 02:55:32;;;;;;;0.00;0.00;;;;;;;;;;1760580;28;20542;-70
2022/11/10 02:56:24;;;;;;;0.00;0.00;;;;;;;;;;1760691;28;20239;-70
2022/11/10 02:57:16;;;;;;;0.00;0.00;;;;;;;;;;1761236;28;20905;-70
2022/11/10 02:58:07;;;;;;;0.00;0.00;;;;;;;;;;1760542;28;20315;-70
2022/11/10 02:58:59;;;;;;;0.00;0.00;;;;;;;;;;1757144;28;20711;-70
2022/11/10 02:59:50;;;;;;;0.00;0.00;;;;;;;;;;1760621;28;20706;-70
2022/11/10 03:00:42;;;;;;;0.00;0.00;;;;;;;;;;1761142;28;20200;-70
2022/11/10 03:01:33;;;;;;;0.00;0.00;;;;;;;;;;1759867;28;20201;-70
2022/11/10 03:02:25;;;;;;;0.00;0.00;;;;;;;;;;1753571;28;20582;-70
2022/11/10 03:03:16;;;;;;;0.00;0.00;;;;;;;;;;1755133;28;20820;-70
2022/11/10 03:04:08;;;;;;;0.00;0.00;;;;;;;;;;1753753;28;20296;-70
2022/11/10 03:04:59;;;;;;;0.00;0.00;;;;;;;;;;1755096;28;20637;-70
2022/11/10 03:05:51;;;;;;;0.00;0.00;;;;;;;;;;1754335;28;20225;-70
2022/11/10 03:06:42;;;;;;;0.00;0.00;;;;;;;;;;1754919;28;20228;-70
2022/11/10 03:07:36;;;;;;;0.00;0.00;;;;;;;;;;1753998;28;20229;-70
2022/11/10 03:08:27;;;;;;;0.00;0.00;;;;;;;;;;1754924;28;20243;-70
2022/11/10 03:09:19;;;;;;;0.00;0.00;;;;;;;;;;1753721;28;20216;-70
2022/11/10 03:10:10;;;;;;;0.00;0.00;;;;;;;;;;1756756;28;20220;-70
2022/11/10 03:11:02;;;;;;;0.00;0.00;;;;;;;;;;1755743;28;20225;-70
2022/11/10 03:11:53;;;;;;;0.00;0.00;;;;;;;;;;1758369;28;20224;-70
2022/11/10 03:12:45;;;;;;;0.00;0.00;;;;;;;;;;1758211;28;20235;-70
2022/11/10 03:13:36;;;;;;;0.00;0.00;;;;;;;;;;1759103;28;20328;-70
2022/11/10 03:14:28;;;;;;;0.00;0.00;;;;;;;;;;1760958;28;20238;-70
2022/11/10 03:15:19;;;;;;;0.00;0.00;;;;;;;;;;1756176;28;20301;-70
2022/11/10 03:16:11;;;;;;;0.00;0.00;;;;;;;;;;1754354;28;20194;-70
2022/11/10 03:17:02;;;;;;;0.00;0.00;;;;;;;;;;1753345;28;20212;-70
2022/11/10 03:17:53;;;;;;;0.00;0.00;;;;;;;;;;1754103;28;20554;-70
2022/11/10 03:18:45;;;;;;;0.00;0.00;;;;;;;;;;1755051;28;20198;-70
2022/11/10 03:19:36;;;;;;;0.00;0.00;;;;;;;;;;1753483;28;20229;-70
2022/11/10 03:20:28;;;;;;;0.00;0.00;;;;;;;;;;1755476;28;20205;-70
2022/11/10 03:21:19;;;;;;;0.00;0.00;;;;;;;;;;1753569;28;20245;-70
2022/11/10 03:22:11;;;;;;;0.00;0.00;;;;;;;;;;1760885;28;20229;-70
2022/11/10 03:23:04;;;;;;;0.00;0.00;;;;;;;;;;1760473;28;20212;-70
2022/11/10 03:23:56;;;;;;;0.00;0.00;;;;;;;;;;1754316;28;20542;-70
2022/11/10 03:24:47;;;;;;;0.00;0.00;;;;;;;;;;1758398;28;20885;-70
2022/11/10 03:25:39;;;;;;;0.00;0.00;;;;;;;;;;1757487;28;20239;-70
2022/11/10 03:26:30;;;;;;;0.00;0.00;;;;;;;;;;1758877;28;20278;-70
2022/11/10 03:27:22;;;;;;;0.00;0.00;;;;;;;;;;1760929;28;20205;-70
2022/11/10 03:28:13;;;;;;;0.00;0.00;;;;;;;;;;1760760;28;20214;-70
2022/11/10 03:29:05;;;;;;;0.00;0.00;;;;;;;;;;1753730;28;20197;-70
2022/11/10 03:29:56;;;;;;;0.00;0.00;;;;;;;;;;1754726;28;20301;-70
2022/11/10 03:30:48;;;;;;;0.00;0.00;;;;;;;;;;1760840;28;20193;-70
2022/11/10 03:31:39;;;;;;;0.00;0.00;;;;;;;;;;1760558;28;20638;-70
2022/11/10 03:32:31;;;;;;;0.00;0.00;;;;;;;;;;1760476;28;20217;-70
2022/11/10 03:33:22;;;;;;;0.00;0.00;;;;;;;;;;1759539;28;20236;-70
2022/11/10 03:34:14;;;;;;;0.00;0.00;;;;;;;;;;1759065;28;20273;-70
2022/11/10 03:35:06;;;;;;;0.00;0.00;;;;;;;;;;1762294;28;20349;-70
2022/11/10 03:35:58;;;;;;;0.00;0.00;;;;;;;;;;1749960;28;20665;-70
2022/11/10 03:36:49;;;;;;;0.00;0.00;;;;;;;;;;1758412;28;20639;-70
2022/11/10 03:37:41;;;;;;;0.00;0.00;;;;;;;;;;1758096;28;20205;-70
2022/11/10 03:38:34;;;;;;;0.00;0.00;;;;;;;;;;1758016;28;20592;-70
2022/11/10 03:39:26;;;;;;;0.00;0.00;;;;;;;;;;1762496;28;20641;-70
2022/11/10 03:40:17;;;;;;;0.00;0.00;;;;;;;;;;1761108;27;20841;-70
2022/11/10 03:41:09;;;;;;;0.00;0.00;;;;;;;;;;1756617;28;20193;-70
2022/11/10 03:42:00;;;;;;;0.00;0.00;;;;;;;;;;1760903;28;20250;-70
2022/11/10 03:42:52;;;;;;;0.00;0.00;;;;;;;;;;1758877;28;20649;-70
2022/11/10 03:43:43;;;;;;;0.00;0.00;;;;;;;;;;1760539;28;20576;-70
2022/11/10 03:44:35;;;;;;;0.00;0.00;;;;;;;;;;1755325;28;20293;-70
2022/11/10 03:45:26;;;;;;;0.00;0.00;;;;;;;;;;1755520;28;20255;-70
2022/11/10 03:46:18;;;;;;;0.00;0.00;;;;;;;;;;1754744;28;20722;-70
2022/11/10 03:47:09;;;;;;;0.00;0.00;;;;;;;;;;1755029;28;20704;-70
2022/11/10 03:48:01;;;;;;;0.00;0.00;;;;;;;;;;1755439;28;20210;-70
2022/11/10 03:48:52;;;;;;;0.00;0.00;;;;;;;;;;1761232;28;20197;-70
2022/11/10 03:49:44;;;;;;;0.00;0.00;;;;;;;;;;1761852;28;20262;-70
2022/11/10 03:50:35;;;;;;;0.00;0.00;;;;;;;;;;1762371;28;20209;-70
2022/11/10 03:51:27;;;;;;;0.00;0.00;;;;;;;;;;1755517;28;20201;-70
2022/11/10 03:52:18;;;;;;;0.00;0.00;;;;;;;;;;1751641;28;20240;-70
2022/11/10 03:53:10;;;;;;;0.00;0.00;;;;;;;;;;1756990;28;20270;-70
2022/11/10 03:54:03;;;;;;;0.00;0.00;;;;;;;;;;1758358;28;20568;-70
2022/11/10 03:54:55;;;;;;;0.00;0.00;;;;;;;;;;1755498;28;20284;-71
2022/11/10 03:55:46;;;;;;;0.00;0.00;;;;;;;;;;1762790;28;20240;-71
2022/11/10 03:56:38;;;;;;;0.00;0.00;;;;;;;;;;1761549;28;20200;-71
2022/11/10 03:57:29;;;;;;;0.00;0.00;;;;;;;;;;1762352;28;20259;-70
2022/11/10 03:58:21;;;;;;;0.00;0.00;;;;;;;;;;1760283;28;20213;-70
2022/11/10 03:59:12;;;;;;;0.00;0.00;;;;;;;;;;1762166;28;20224;-71
2022/11/10 04:00:05;;;;;;;0.00;0.00;;;;;;;;;;1760456;28;20198;-70
2022/11/10 04:00:56;;;;;;;0.00;0.00;;;;;;;;;;1762152;28;20243;-70
2022/11/10 04:01:48;;;;;;;0.00;0.00;;;;;;;;;;1759562;28;20542;-70
2022/11/10 04:02:40;;;;;;;0.00;0.00;;;;;;;;;;1762167;28;20240;-70
2022/11/10 04:03:32;;;;;;;0.00;0.00;;;;;;;;;;1759655;28;20200;-70
2022/11/10 04:09:10;;;;;;;0.00;0.00;;;;;;;;;;1737940;28;20211;-70
2022/11/10 04:10:05;;;;;;;0.00;0.00;;;;;;;;;;1755017;28;20713;-71
2022/11/10 04:10:57;;;;;;;0.00;0.00;;;;;;;;;;1760881;28;20337;-71
2022/11/10 04:16:28;;;;;;;0.00;0.00;;;;;;;;;;1760331;28;20192;-71
2022/11/10 04:17:19;;;;;;;0.00;0.00;;;;;;;;;;1755182;28;20240;-71
2022/11/10 04:18:23;;;;;;;0.00;0.00;;;;;;;;;;1761337;28;20235;-71
2022/11/10 04:19:14;;;;;;;0.00;0.00;;;;;;;;;;1756568;28;20194;-71
2022/11/10 04:20:07;;;;;;;0.00;0.00;;;;;;;;;;1757585;28;20202;-71
2022/11/10 04:20:59;;;;;;;0.00;0.00;;;;;;;;;;1762092;28;20204;-71
2022/11/10 04:21:51;;;;;;;0.00;0.00;;;;;;;;;;1759596;28;20550;-71
2022/11/10 04:23:53;;;;;;;0.00;0.00;;;;;;;;;;1759480;28;20193;-71
2022/11/10 04:24:45;;;;;;;0.00;0.00;;;;;;;;;;1748936;28;20232;-71
2022/11/10 04:26:27;;;;;;;0.00;0.00;;;;;;;;;;1755441;28;20752;-71
2022/11/10 04:26:48;;;;;;;0.00;0.00;;;;;;;;;;1754378;28;20655;-70
2022/11/10 04:27:39;;;;;;;0.00;0.00;;;;;;;;;;1761752;28;20196;-70
2022/11/10 04:28:31;;;;;;;0.00;0.00;;;;;;;;;;1760093;28;20215;-70
2022/11/10 04:29:23;;;;;;;0.00;0.00;;;;;;;;;;1762078;28;20201;-70
2022/11/10 04:30:15;;;;;;;0.00;0.00;;;;;;;;;;1761856;28;20235;-70
2022/11/10 04:31:07;;;;;;;0.00;0.00;;;;;;;;;;1762096;28;20193;-70
2022/11/10 04:31:58;;;;;;;0.00;0.00;;;;;;;;;;1759324;28;20300;-70
2022/11/10 04:32:53;;;;;;;0.00;0.00;;;;;;;;;;1762092;28;20283;-70
2022/11/10 04:33:45;;;;;;;0.00;0.00;;;;;;;;;;1759426;28;20216;-70
2022/11/10 04:34:37;;;;;;;0.00;0.00;;;;;;;;;;1761696;28;20216;-71
2022/11/10 04:35:28;;;;;;;0.00;0.00;;;;;;;;;;1760707;28;20270;-70
2022/11/10 04:36:21;;;;;;;0.00;0.00;;;;;;;;;;1761158;28;20225;-71
2022/11/10 04:37:12;;;;;;;0.00;0.00;;;;;;;;;;1756558;28;20242;-70
2022/11/10 04:38:04;;;;;;;0.00;0.00;;;;;;;;;;1761620;28;20231;-70
2022/11/10 04:38:56;;;;;;;0.00;0.00;;;;;;;;;;1758663;28;20228;-70
2022/11/10 04:39:48;;;;;;;0.00;0.00;;;;;;;;;;1754927;28;20201;-70
2022/11/10 04:40:39;;;;;;;0.00;0.00;;;;;;;;;;1752871;28;20285;-70
2022/11/10 04:41:32;;;;;;;0.00;0.00;;;;;;;;;;1753664;28;20256;-71
2022/11/10 04:42:23;;;;;;;0.00;0.00;;;;;;;;;;1761742;28;20205;-71
2022/11/10 04:43:14;;;;;;;0.00;0.00;;;;;;;;;;1754599;28;20197;-71
2022/11/10 04:44:07;;;;;;;0.00;0.00;;;;;;;;;;1756638;28;20792;-71
2022/11/10 04:44:58;;;;;;;0.00;0.00;;;;;;;;;;1760761;28;20197;-71
2022/11/10 04:45:49;;;;;;;0.00;0.00;;;;;;;;;;1762341;28;20245;-71
2022/11/10 04:46:42;;;;;;;0.00;0.00;;;;;;;;;;1759526;28;20255;-71
2022/11/10 04:47:34;;;;;;;0.00;0.00;;;;;;;;;;1761804;28;20205;-71
2022/11/10 04:48:26;;;;;;;0.00;0.00;;;;;;;;;;1759775;28;20209;-71
2022/11/10 04:49:17;;;;;;;0.00;0.00;;;;;;;;;;1761640;28;20220;-71
2022/11/10 04:50:10;;;;;;;0.00;0.00;;;;;;;;;;1759999;28;20799;-71
2022/11/10 04:51:02;;;;;;;0.00;0.00;;;;;;;;;;1760522;28;20598;-71
2022/11/10 04:51:54;;;;;;;0.00;0.00;;;;;;;;;;1752806;28;20211;-71
2022/11/10 04:52:45;;;;;;;0.00;0.00;;;;;;;;;;1762042;28;20275;-71
2022/11/10 04:53:38;;;;;;;0.00;0.00;;;;;;;;;;1760831;28;20244;-71
2022/11/10 04:54:29;;;;;;;0.00;0.00;;;;;;;;;;1755049;28;20193;-70
2022/11/10 04:55:22;;;;;;;0.00;0.00;;;;;;;;;;1758942;28;20201;-70
2022/11/10 04:56:14;;;;;;;0.00;0.00;;;;;;;;;;1761847;28;20239;-70
2022/11/10 04:57:06;;;;;;;0.00;0.00;;;;;;;;;;1761261;28;20232;-70
2022/11/10 04:57:57;;;;;;;0.00;0.00;;;;;;;;;;1761589;28;20229;-70
2022/11/10 04:58:49;;;;;;;0.00;0.00;;;;;;;;;;1760102;28;20221;-70
2022/11/10 04:59:40;;;;;;;0.00;0.00;;;;;;;;;;1760693;28;20209;-70
2022/11/10 05:00:32;;;;;;;0.00;0.00;;;;;;;;;;1760747;28;20638;-70
2022/11/10 05:01:25;;;;;;;0.00;0.00;;;;;;;;;;1760264;28;20228;-71
2022/11/10 05:02:17;;;;;;;0.00;0.00;;;;;;;;;;1761031;28;20566;-71
2022/11/10 05:03:09;;;;;;;0.00;0.00;;;;;;;;;;1759731;28;20622;-70
2022/11/10 05:04:01;;;;;;;0.00;0.00;;;;;;;;;;1752109;28;20201;-71
2022/11/10 05:04:52;;;;;;;0.00;0.00;;;;;;;;;;1761480;28;20538;-71
2022/11/10 05:05:44;;;;;;;0.00;0.00;;;;;;;;;;1757941;28;20205;-71
2022/11/10 05:06:35;;;;;;;0.00;0.00;;;;;;;;;;1755392;28;20264;-71
2022/11/10 05:07:27;;;;;;;0.00;0.00;;;;;;;;;;1761745;28;20257;-71
2022/11/10 05:08:18;;;;;;;0.00;0.00;;;;;;;;;;1760219;28;20242;-71
2022/11/10 05:09:10;;;;;;;0.00;0.00;;;;;;;;;;1761958;28;20197;-71
2022/11/10 05:10:05;;;;;;;0.00;0.00;;;;;;;;;;1760784;28;20201;-71
2022/11/10 05:10:58;;;;;;;0.00;0.00;;;;;;;;;;1754902;28;20228;-70
2022/11/10 05:11:49;;;;;;;0.00;0.00;;;;;;;;;;1755127;28;20209;-70
2022/11/10 05:12:41;;;;;;;0.00;0.00;;;;;;;;;;1759490;28;20537;-71
2022/11/10 05:13:32;;;;;;;0.00;0.00;;;;;;;;;;1754431;28;20247;-71
2022/11/10 05:14:24;;;;;;;0.00;0.00;;;;;;;;;;1758925;28;20480;-71
2022/11/10 05:15:16;;;;;;;0.00;0.00;;;;;;;;;;1761770;28;20315;-70
2022/11/10 05:16:08;;;;;;;0.00;0.00;;;;;;;;;;1761526;28;20228;-70
2022/11/10 05:16:59;;;;;;;0.00;0.00;;;;;;;;;;1759310;28;20248;-70
2022/11/10 05:17:52;;;;;;;0.00;0.00;;;;;;;;;;1761761;28;20597;-70
2022/11/10 05:18:43;;;;;;;0.00;0.00;;;;;;;;;;1759334;28;20229;-70
2022/11/10 05:19:35;;;;;;;0.00;0.00;;;;;;;;;;1761910;28;20193;-70
2022/11/10 05:20:26;;;;;;;0.00;0.00;;;;;;;;;;1759942;28;20243;-70
2022/11/10 05:21:18;;;;;;;0.00;0.00;;;;;;;;;;1757846;28;20266;-70
2022/11/10 05:22:10;;;;;;;0.00;0.00;;;;;;;;;;1756381;28;20232;-70
2022/11/10 05:24:11;;;;;;;0.00;0.00;;;;;;;;;;1754694;28;20242;-70
2022/11/10 05:25:06;;;;;;;0.00;0.00;;;;;;;;;;1761554;28;20238;-70
2022/11/10 05:25:59;;;;;;;0.00;0.00;;;;;;;;;;1761873;28;20212;-71
2022/11/10 05:26:50;;;;;;;0.00;0.00;;;;;;;;;;1754729;28;20315;-70